createdAt,value
2024-02-03T00:02:23.887Z,96.67
2024-02-03T00:04:52.237Z,96.55
2024-02-03T00:07:20.805Z,96.60
2024-02-03T00:09:49.357Z,96.52
2024-02-03T00:12:21.048Z,96.37
2024-02-03T00:14:49.514Z,96.62
2024-02-03T00:17:17.678Z,96.64
2024-02-03T00:19:46.167Z,96.49
2024-02-03T00:22:15.327Z,96.44
2024-02-03T00:24:43.796Z,96.51
2024-02-03T00:27:12.041Z,96.30
2024-02-03T00:29:40.157Z,96.38
2024-02-03T00:32:08.453Z,96.45
2024-02-03T00:34:36.923Z,96.33
2024-02-03T00:37:05.625Z,96.27
2024-02-03T00:39:33.796Z,96.42
2024-02-03T00:42:02.010Z,96.42
2024-02-03T00:44:30.219Z,96.19
2024-02-03T00:46:58.438Z,96.33
2024-02-03T00:49:26.753Z,96.32
2024-02-03T00:51:55.970Z,96.09
2024-02-03T00:54:24.554Z,95.78
2024-02-03T00:56:52.716Z,95.87
2024-02-03T00:59:21.187Z,95.84
2024-02-03T01:01:49.432Z,95.94
2024-02-03T01:04:18.196Z,95.87
2024-02-03T01:06:46.518Z,95.77
2024-02-03T01:09:19.044Z,95.78
2024-02-03T01:11:47.485Z,95.70
2024-02-03T01:14:15.594Z,95.90
2024-02-03T01:16:45.575Z,96.12
2024-02-03T01:19:13.862Z,96.10
2024-02-03T01:21:42.665Z,96.34
2024-02-03T01:24:10.964Z,96.31
2024-02-03T01:26:39.128Z,96.56
2024-02-03T01:29:07.474Z,96.53
2024-02-03T01:31:35.654Z,96.66
2024-02-03T01:34:04.074Z,96.72
2024-02-03T01:36:32.619Z,96.53
2024-02-03T01:39:00.885Z,96.94
2024-02-03T01:41:29.149Z,96.89
2024-02-03T01:43:57.628Z,97.37
2024-02-03T01:46:26.008Z,96.92
2024-02-03T01:48:54.595Z,96.96
2024-02-03T01:51:24.826Z,97.08
2024-02-03T01:53:54.349Z,97.01
2024-02-03T01:56:23.308Z,97.02
2024-02-03T01:58:51.492Z,96.83
2024-02-03T02:01:20.002Z,97.55
2024-02-03T02:03:48.345Z,97.63
2024-02-03T02:06:16.603Z,97.52
2024-02-03T02:08:44.906Z,97.56
2024-02-03T02:11:13.806Z,97.64
2024-02-03T02:13:41.965Z,97.74
2024-02-03T02:16:10.233Z,98.04
2024-02-03T02:18:38.852Z,98.73
2024-02-03T02:21:07.118Z,98.77
2024-02-03T02:23:35.477Z,99.02
2024-02-03T02:26:04.362Z,99.25
2024-02-03T02:28:33.576Z,99.39
2024-02-03T02:31:01.739Z,100.00
2024-02-03T02:33:30.049Z,100.00
2024-02-03T02:35:58.211Z,100.00
2024-02-03T02:38:26.465Z,100.00
2024-02-03T02:40:54.698Z,99.96
2024-02-03T02:43:23.421Z,99.98
2024-02-03T02:45:51.670Z,99.97
2024-02-03T02:48:20.293Z,99.90
2024-02-03T02:50:48.769Z,99.92
2024-02-03T02:53:16.828Z,99.79
2024-02-03T02:55:45.422Z,99.71
2024-02-03T02:58:13.606Z,99.48
2024-02-03T03:00:41.984Z,99.72
2024-02-03T03:03:10.198Z,99.58
2024-02-03T03:05:38.515Z,99.40
2024-02-03T03:08:06.689Z,99.50
2024-02-03T03:10:34.964Z,99.69
2024-02-03T03:13:03.475Z,99.95
2024-02-03T03:15:31.631Z,99.93
2024-02-03T03:18:00.107Z,100.00
2024-02-03T03:20:28.494Z,100.00
2024-02-03T03:22:56.903Z,100.00
2024-02-03T03:25:25.047Z,100.00
2024-02-03T03:27:53.316Z,100.00
2024-02-03T03:30:21.515Z,100.00
2024-02-03T03:32:52.188Z,100.00
2024-02-03T03:35:21.161Z,100.00
2024-02-03T03:37:49.314Z,100.00
2024-02-03T03:40:17.450Z,100.00
2024-02-03T03:42:49.344Z,100.00
2024-02-03T03:45:20.806Z,100.00
2024-02-03T03:47:49.093Z,100.00
2024-02-03T03:50:17.320Z,100.00
2024-02-03T03:52:45.687Z,100.00
2024-02-03T03:55:13.912Z,100.00
2024-02-03T03:57:42.341Z,100.00
2024-02-03T04:00:12.509Z,100.00
2024-02-03T04:02:41.151Z,100.00
2024-02-03T04:05:09.938Z,100.00
2024-02-03T04:07:38.119Z,100.00
2024-02-03T04:10:06.832Z,100.00
2024-02-03T04:12:35.093Z,100.00
2024-02-03T04:15:03.494Z,100.00
2024-02-03T04:17:31.838Z,100.00
2024-02-03T04:20:00.144Z,100.00
2024-02-03T04:22:28.685Z,100.00
2024-02-03T04:24:57.208Z,100.00
2024-02-03T04:27:25.679Z,100.00
2024-02-03T04:29:53.835Z,100.00
2024-02-03T04:32:22.118Z,100.00
2024-02-03T04:34:50.203Z,100.00
2024-02-03T04:37:18.801Z,100.00
2024-02-03T04:39:47.062Z,100.00
2024-02-03T04:42:15.789Z,100.00
2024-02-03T04:44:43.983Z,100.00
2024-02-03T04:47:12.432Z,100.00
2024-02-03T04:49:40.726Z,100.00
2024-02-03T04:52:09.226Z,100.00
2024-02-03T04:54:37.603Z,100.00
2024-02-03T04:57:06.396Z,100.00
2024-02-03T04:59:34.434Z,100.00
2024-02-03T05:02:02.572Z,100.00
2024-02-03T05:04:30.824Z,100.00
2024-02-03T05:06:59.153Z,100.00
2024-02-03T05:09:27.700Z,100.00
2024-02-03T05:11:56.175Z,100.00
2024-02-03T05:14:24.323Z,100.00
2024-02-03T05:16:52.710Z,100.00
2024-02-03T05:19:20.948Z,100.00
2024-02-03T05:21:49.286Z,100.00
2024-02-03T05:24:17.716Z,100.00
2024-02-03T05:26:46.023Z,100.00
2024-02-03T05:29:14.330Z,100.00
2024-02-03T05:31:42.453Z,100.00
2024-02-03T05:34:10.670Z,100.00
2024-02-03T05:36:38.963Z,100.00
2024-02-03T05:39:08.314Z,100.00
2024-02-03T05:41:36.554Z,100.00
2024-02-03T05:44:05.017Z,100.00
2024-02-03T05:46:33.240Z,100.00
2024-02-03T05:49:01.464Z,100.00
2024-02-03T05:51:29.930Z,100.00
2024-02-03T05:54:01.060Z,100.00
2024-02-03T05:56:29.303Z,100.00
2024-02-03T05:59:13.697Z,100.00
2024-02-03T06:01:45.991Z,100.00
2024-02-03T06:04:14.086Z,100.00
2024-02-03T06:06:42.395Z,100.00
2024-02-03T06:09:10.597Z,100.00
2024-02-03T06:11:38.627Z,100.00
2024-02-03T06:14:06.739Z,100.00
2024-02-03T06:16:34.984Z,100.00
2024-02-03T06:19:03.672Z,100.00
2024-02-03T06:21:32.092Z,100.00
2024-02-03T06:24:00.337Z,100.00
2024-02-03T06:26:32.871Z,100.00
2024-02-03T06:29:01.163Z,100.00
2024-02-03T06:31:29.386Z,100.00
2024-02-03T06:33:57.803Z,100.00
2024-02-03T06:36:26.032Z,100.00
2024-02-03T06:38:54.370Z,100.00
2024-02-03T06:41:23.161Z,100.00
2024-02-03T06:43:52.277Z,100.00
2024-02-03T06:46:20.543Z,100.00
2024-02-03T06:48:48.834Z,100.00
2024-02-03T06:51:17.188Z,100.00
2024-02-03T06:53:45.476Z,100.00
2024-02-03T06:56:13.746Z,100.00
2024-02-03T06:58:42.056Z,100.00
2024-02-03T07:01:10.231Z,100.00
2024-02-03T07:03:38.808Z,100.00
2024-02-03T07:06:08.011Z,100.00
2024-02-03T07:08:36.172Z,100.00
2024-02-03T07:11:04.535Z,100.00
2024-02-03T07:13:32.825Z,100.00
2024-02-03T07:16:01.200Z,100.00
2024-02-03T07:18:29.488Z,100.00
2024-02-03T07:20:58.239Z,100.00
2024-02-03T07:23:26.511Z,100.00
2024-02-03T07:25:54.698Z,100.00
2024-02-03T07:28:22.859Z,100.00
2024-02-03T07:30:51.060Z,100.00
2024-02-03T07:33:19.526Z,100.00
2024-02-03T07:35:47.835Z,100.00
2024-02-03T07:38:16.111Z,100.00
2024-02-03T07:40:44.245Z,100.00
2024-02-03T07:43:12.207Z,100.00
2024-02-03T07:45:40.163Z,100.00
2024-02-03T07:48:08.554Z,100.00
2024-02-03T07:50:36.616Z,100.00
2024-02-03T07:53:04.641Z,100.00
2024-02-03T07:55:32.583Z,100.00
2024-02-03T07:58:00.566Z,100.00
2024-02-03T08:00:28.953Z,100.00
2024-02-03T08:02:57.084Z,100.00
2024-02-03T08:05:25.599Z,100.00
2024-02-03T08:07:54.656Z,100.00
2024-02-03T08:10:24.178Z,100.00
2024-02-03T08:12:52.261Z,100.00
2024-02-03T08:15:21.044Z,100.00
2024-02-03T08:17:49.238Z,100.00
2024-02-03T08:20:17.536Z,100.00
2024-02-03T08:22:45.771Z,100.00
2024-02-03T08:25:14.041Z,100.00
2024-02-03T08:27:42.242Z,100.00
2024-02-03T08:30:11.590Z,100.00
2024-02-03T08:32:39.812Z,100.00
2024-02-03T08:37:39.727Z,100.00
2024-02-03T08:40:08.600Z,100.00
2024-02-03T08:42:36.789Z,100.00
2024-02-03T08:45:05.584Z,100.00
2024-02-03T08:47:33.661Z,100.00
2024-02-03T08:50:02.623Z,100.00
2024-02-03T08:52:30.715Z,100.00
2024-02-03T08:55:00.136Z,100.00
2024-02-03T08:57:28.647Z,100.00
2024-02-03T08:59:57.061Z,100.00
2024-02-03T09:02:25.346Z,99.98
2024-02-03T09:04:54.109Z,99.99
2024-02-03T09:07:22.229Z,100.00
2024-02-03T09:09:50.470Z,100.00
2024-02-03T09:12:18.921Z,100.00
2024-02-03T09:14:47.438Z,100.00
2024-02-03T09:17:15.536Z,100.00
2024-02-03T09:19:43.918Z,100.00
2024-02-03T09:22:12.154Z,100.00
2024-02-03T09:24:41.019Z,100.00
2024-02-03T09:27:09.322Z,100.00
2024-02-03T09:29:44.222Z,100.00
2024-02-03T09:32:12.321Z,100.00
2024-02-03T09:34:47.360Z,100.00
2024-02-03T09:39:47.299Z,100.00
2024-02-03T09:42:16.771Z,100.00
2024-02-03T09:44:46.197Z,100.00
2024-02-03T09:47:17.742Z,100.00
2024-02-03T09:49:46.350Z,100.00
2024-02-03T09:52:16.468Z,100.00
2024-02-03T09:54:48.948Z,99.96
2024-02-03T09:57:17.559Z,99.99
2024-02-03T09:59:52.104Z,99.51
2024-02-03T10:02:20.611Z,99.19
2024-02-03T10:04:49.352Z,98.35
2024-02-03T10:07:20.881Z,98.05
2024-02-03T10:12:22.911Z,96.90
2024-02-03T10:15:02.148Z,96.58
2024-02-03T10:17:30.255Z,96.42
2024-02-03T10:19:59.494Z,95.43
2024-02-03T10:22:28.323Z,95.16
2024-02-03T10:25:07.637Z,94.41
2024-02-03T10:27:35.861Z,94.21
2024-02-03T10:30:04.337Z,93.88
2024-02-03T10:32:32.657Z,94.10
2024-02-03T10:35:02.361Z,93.66
2024-02-03T10:37:30.694Z,93.15
2024-02-03T10:39:59.453Z,93.38
2024-02-03T10:42:32.331Z,93.40
2024-02-03T10:45:03.345Z,93.54
2024-02-03T10:47:33.623Z,93.72
2024-02-03T10:50:05.611Z,93.67
2024-02-03T10:52:34.775Z,93.80
2024-02-03T10:55:04.863Z,93.38
2024-02-03T10:57:33.257Z,93.46
2024-02-03T11:00:06.229Z,93.47
2024-02-03T11:02:35.676Z,93.57
2024-02-03T11:05:03.990Z,93.47
2024-02-03T11:07:32.859Z,93.17
2024-02-03T11:10:05.599Z,93.03
2024-02-03T11:12:38.332Z,93.35
2024-02-03T11:15:16.210Z,93.05
2024-02-03T11:17:45.750Z,93.19
2024-02-03T11:20:21.626Z,93.13
2024-02-03T11:22:54.287Z,93.21
2024-02-03T11:25:22.399Z,92.80
2024-02-03T11:27:52.980Z,92.89
2024-02-03T11:30:21.235Z,92.89
2024-02-03T11:32:49.485Z,92.85
2024-02-03T11:35:19.038Z,93.04
2024-02-03T11:37:47.565Z,92.99
2024-02-03T11:40:16.193Z,93.11
2024-02-03T11:42:45.094Z,93.05
2024-02-03T11:45:16.428Z,93.20
2024-02-03T11:47:45.042Z,93.26
2024-02-03T11:50:13.066Z,93.61
2024-02-03T11:52:47.744Z,93.55
2024-02-03T11:55:16.045Z,93.51
2024-02-03T11:57:44.289Z,93.45
2024-02-03T12:00:14.643Z,93.53
2024-02-03T12:02:43.134Z,93.56
2024-02-03T12:05:14.561Z,93.55
2024-02-03T12:07:43.855Z,93.49
2024-02-03T12:10:14.301Z,92.96
2024-02-03T12:12:42.532Z,92.65
2024-02-03T12:15:12.265Z,92.85
2024-02-03T12:17:41.537Z,92.23
2024-02-03T12:20:26.087Z,92.02
2024-02-03T12:22:54.514Z,91.94
2024-02-03T12:25:23.907Z,92.03
2024-02-03T12:27:53.647Z,91.78
2024-02-03T12:30:23.973Z,90.77
2024-02-03T12:32:52.492Z,90.61
2024-02-03T12:35:20.706Z,90.70
2024-02-03T12:37:48.862Z,90.38
2024-02-03T12:40:16.910Z,90.47
2024-02-03T12:42:45.123Z,89.79
2024-02-03T12:45:13.786Z,89.70
2024-02-03T12:47:45.799Z,90.22
2024-02-03T12:50:14.145Z,90.71
2024-02-03T12:52:43.288Z,90.84
2024-02-03T12:55:11.627Z,90.79
2024-02-03T12:57:39.935Z,90.73
2024-02-03T13:00:09.065Z,90.57
2024-02-03T13:02:37.683Z,90.62
2024-02-03T13:05:06.265Z,90.95
2024-02-03T13:07:34.544Z,90.63
2024-02-03T13:10:02.716Z,90.30
2024-02-03T13:12:31.733Z,90.46
2024-02-03T13:15:00.124Z,90.81
2024-02-03T13:17:30.386Z,90.46
2024-02-03T13:19:59.509Z,90.33
2024-02-03T13:22:27.840Z,90.16
2024-02-03T13:24:56.091Z,90.20
2024-02-03T13:27:24.531Z,90.13
2024-02-03T13:29:53.417Z,90.10
2024-02-03T13:32:22.023Z,89.30
2024-02-03T13:34:50.951Z,89.30
2024-02-03T13:37:19.561Z,89.17
2024-02-03T13:39:47.991Z,88.88
2024-02-03T13:42:17.553Z,88.60
2024-02-03T13:44:45.953Z,88.23
2024-02-03T13:47:14.025Z,87.83
2024-02-03T13:49:42.321Z,87.71
2024-02-03T13:52:13.985Z,87.50
2024-02-03T13:54:42.465Z,87.69
2024-02-03T13:57:10.647Z,87.79
2024-02-03T13:59:38.943Z,87.26
2024-02-03T14:02:07.565Z,87.40
2024-02-03T14:04:35.992Z,87.40
2024-02-03T14:07:05.352Z,87.51
2024-02-03T14:09:33.586Z,87.57
2024-02-03T14:12:04.894Z,87.31
2024-02-03T14:14:33.185Z,86.72
2024-02-03T14:17:01.429Z,87.27
2024-02-03T14:19:29.731Z,87.04
2024-02-03T14:21:58.315Z,86.80
2024-02-03T14:24:26.930Z,86.76
2024-02-03T14:26:55.306Z,86.81
2024-02-03T14:29:23.529Z,86.95
2024-02-03T14:31:51.588Z,86.82
2024-02-03T14:34:19.816Z,86.59
2024-02-03T14:36:48.609Z,86.55
2024-02-03T14:39:20.338Z,86.74
2024-02-03T14:41:48.988Z,86.48
2024-02-03T14:44:18.062Z,86.71
2024-02-03T14:46:46.570Z,86.97
2024-02-03T14:49:15.089Z,87.24
2024-02-03T14:51:43.940Z,87.65
2024-02-03T14:54:13.316Z,88.02
2024-02-03T14:56:42.056Z,88.32
2024-02-03T14:59:10.201Z,88.37
2024-02-03T15:01:38.482Z,88.80
2024-02-03T15:04:08.945Z,89.27
2024-02-03T15:06:37.931Z,90.36
2024-02-03T15:09:09.289Z,91.96
2024-02-03T15:11:37.654Z,92.57
2024-02-03T15:14:06.202Z,93.32
2024-02-03T15:16:34.393Z,94.10
2024-02-03T15:19:02.600Z,94.43
2024-02-03T15:21:31.379Z,94.79
2024-02-03T15:23:59.682Z,94.92
2024-02-03T15:26:28.100Z,94.54
2024-02-03T15:28:56.702Z,94.48
2024-02-03T15:31:27.039Z,94.48
2024-02-03T15:33:55.683Z,94.39
2024-02-03T15:36:24.264Z,94.46
2024-02-03T15:38:52.549Z,94.46
2024-02-03T15:41:20.882Z,94.22
2024-02-03T15:43:49.047Z,93.91
2024-02-03T15:46:18.111Z,93.92
2024-02-03T15:48:46.539Z,94.16
2024-02-03T15:51:14.830Z,94.21
2024-02-03T15:53:43.170Z,94.49
2024-02-03T15:56:11.717Z,94.67
2024-02-03T15:58:40.462Z,94.85
2024-02-03T16:01:08.756Z,94.56
2024-02-03T16:03:37.477Z,94.32
2024-02-03T16:06:06.338Z,93.86
2024-02-03T16:08:34.557Z,93.60
2024-02-03T16:11:03.216Z,92.92
2024-02-03T16:13:31.397Z,92.24
2024-02-03T16:16:00.259Z,91.55
2024-02-03T16:18:28.993Z,90.16
2024-02-03T16:20:57.144Z,89.50
2024-02-03T16:23:25.356Z,87.73
2024-02-03T16:25:53.621Z,86.60
2024-02-03T16:28:21.800Z,86.30
2024-02-03T16:30:49.971Z,86.19
2024-02-03T16:33:18.404Z,85.12
2024-02-03T16:35:46.713Z,84.81
2024-02-03T16:38:15.119Z,84.66
2024-02-03T16:40:43.396Z,83.67
2024-02-03T16:43:11.827Z,84.18
2024-02-03T16:45:40.531Z,84.05
2024-02-03T16:48:09.006Z,83.62
2024-02-03T16:50:37.187Z,83.54
2024-02-03T16:53:05.457Z,83.23
2024-02-03T16:55:36.081Z,83.49
2024-02-03T16:58:04.570Z,83.45
2024-02-03T17:00:38.614Z,83.42
2024-02-03T17:03:10.248Z,83.50
2024-02-03T17:05:41.899Z,83.82
2024-02-03T17:08:12.986Z,84.06
2024-02-03T17:10:41.448Z,84.10
2024-02-03T17:13:09.951Z,84.45
2024-02-03T17:15:38.456Z,84.66
2024-02-03T17:18:07.150Z,84.48
2024-02-03T17:20:35.305Z,84.41
2024-02-03T17:23:03.598Z,84.59
2024-02-03T17:25:34.762Z,84.79
2024-02-03T17:28:03.256Z,84.59
2024-02-03T17:30:31.768Z,84.61
2024-02-03T17:33:00.117Z,84.45
2024-02-03T17:35:28.661Z,84.35
2024-02-03T17:37:56.934Z,84.48
2024-02-03T17:40:25.127Z,84.20
2024-02-03T17:42:53.400Z,84.34
2024-02-03T17:45:24.571Z,84.38
2024-02-03T17:47:53.462Z,84.51
2024-02-03T17:50:21.686Z,84.78
2024-02-03T17:52:49.985Z,84.91
2024-02-03T17:55:18.446Z,85.01
2024-02-03T17:57:47.297Z,85.46
2024-02-03T18:00:16.399Z,85.71
2024-02-03T18:02:44.731Z,86.12
2024-02-03T18:05:13.226Z,86.26
2024-02-03T18:07:41.399Z,86.36
2024-02-03T18:10:10.392Z,86.34
2024-02-03T18:12:38.673Z,86.27
2024-02-03T18:15:08.138Z,86.68
2024-02-03T18:17:36.661Z,86.67
2024-02-03T18:20:05.430Z,86.90
2024-02-03T18:22:33.790Z,86.79
2024-02-03T18:25:02.662Z,87.05
2024-02-03T18:27:30.964Z,87.20
2024-02-03T18:29:59.129Z,87.05
2024-02-03T18:32:27.716Z,87.33
2024-02-03T18:34:55.878Z,87.25
2024-02-03T18:37:24.155Z,87.46
2024-02-03T18:39:54.037Z,87.21
2024-02-03T18:42:24.712Z,86.81
2024-02-03T18:44:53.080Z,86.36
2024-02-03T18:47:21.492Z,86.02
2024-02-03T18:49:49.786Z,85.17
2024-02-03T18:52:18.116Z,84.54
2024-02-03T18:54:46.526Z,84.03
2024-02-03T18:57:15.080Z,83.88
2024-02-03T18:59:43.146Z,83.17
2024-02-03T19:02:11.215Z,83.27
2024-02-03T19:04:39.369Z,83.20
2024-02-03T19:07:07.559Z,83.19
2024-02-03T19:09:38.010Z,83.66
2024-02-03T19:12:09.426Z,84.00
2024-02-03T19:14:38.862Z,84.23
2024-02-03T19:17:07.125Z,84.51
2024-02-03T19:19:37.463Z,84.76
2024-02-03T19:22:05.844Z,84.80
2024-02-03T19:24:34.256Z,84.64
2024-02-03T19:27:02.582Z,84.60
2024-02-03T19:29:30.785Z,84.55
2024-02-03T19:31:58.920Z,84.55
2024-02-03T19:34:28.300Z,84.39
2024-02-03T19:36:57.673Z,83.95
2024-02-03T19:39:26.854Z,83.76
2024-02-03T19:41:54.990Z,83.57
2024-02-03T19:44:23.078Z,83.37
2024-02-03T19:46:51.437Z,83.21
2024-02-03T19:49:20.658Z,83.08
2024-02-03T19:51:49.419Z,83.18
2024-02-03T19:54:18.248Z,82.91
2024-02-03T19:56:46.697Z,82.74
2024-02-03T19:59:14.969Z,82.58
2024-02-03T20:01:43.445Z,82.99
2024-02-03T20:04:12.022Z,83.07
2024-02-03T20:06:40.402Z,83.13
2024-02-03T20:09:10.335Z,83.23
2024-02-03T20:11:38.697Z,83.28
2024-02-03T20:14:06.793Z,83.03
2024-02-03T20:16:35.103Z,82.99
2024-02-03T20:19:03.497Z,82.58
2024-02-03T20:21:31.876Z,82.51
2024-02-03T20:24:00.190Z,81.93
2024-02-03T20:26:28.342Z,82.13
2024-02-03T20:28:56.780Z,82.29
2024-02-03T20:31:25.241Z,82.08
2024-02-03T20:33:53.911Z,81.97
2024-02-03T20:36:22.691Z,81.87
2024-02-03T20:38:50.973Z,82.04
2024-02-03T20:41:25.825Z,82.12
2024-02-03T20:43:54.060Z,82.13
2024-02-03T20:46:22.365Z,82.44
2024-02-03T20:48:51.007Z,82.11
2024-02-03T20:51:19.637Z,82.12
2024-02-03T20:53:48.026Z,82.30
2024-02-03T20:56:20.391Z,82.21
2024-02-03T20:58:48.833Z,82.40
2024-02-03T21:01:17.581Z,82.33
2024-02-03T21:03:46.413Z,82.63
2024-02-03T21:06:16.785Z,82.93
2024-02-03T21:08:45.436Z,83.14
2024-02-03T21:11:13.867Z,83.10
2024-02-03T21:13:42.108Z,83.49
2024-02-03T21:16:10.522Z,83.94
2024-02-03T21:18:38.892Z,83.97
2024-02-03T21:21:07.303Z,84.11
2024-02-03T21:23:35.654Z,84.16
2024-02-03T21:26:03.795Z,84.11
2024-02-03T21:28:31.945Z,84.47
2024-02-03T21:31:00.339Z,84.52
2024-02-03T21:33:29.155Z,84.74
2024-02-03T21:35:57.570Z,84.83
2024-02-03T21:38:25.918Z,84.97
2024-02-03T21:40:54.152Z,84.79
2024-02-03T21:43:22.346Z,84.85
2024-02-03T21:45:50.416Z,84.85
2024-02-03T21:48:19.071Z,84.86
2024-02-03T21:50:47.473Z,84.88
2024-02-03T21:53:15.551Z,85.08
2024-02-03T21:55:43.612Z,85.05
2024-02-03T21:58:11.834Z,85.19
2024-02-03T22:00:42.255Z,85.05
2024-02-03T22:03:10.346Z,85.16
2024-02-03T22:05:38.672Z,85.30
2024-02-03T22:08:07.862Z,85.13
2024-02-03T22:10:35.918Z,85.18
2024-02-03T22:13:04.259Z,85.05
2024-02-03T22:15:32.460Z,84.92
2024-02-03T22:18:01.218Z,85.01
2024-02-03T22:20:29.176Z,84.85
2024-02-03T22:22:57.203Z,85.13
2024-02-03T22:25:25.471Z,85.32
2024-02-03T22:27:53.708Z,85.25
2024-02-03T22:30:22.919Z,85.41
2024-02-03T22:32:51.203Z,85.42
2024-02-03T22:35:19.803Z,85.77
2024-02-03T22:37:48.287Z,86.00
2024-02-03T22:40:16.791Z,86.09
2024-02-03T22:42:46.420Z,86.13
2024-02-03T22:45:14.638Z,86.37
2024-02-03T22:47:42.892Z,86.50
2024-02-03T22:50:11.822Z,86.32
2024-02-03T22:52:42.027Z,86.44
2024-02-03T22:55:10.576Z,86.39
2024-02-03T22:57:39.017Z,86.40
2024-02-03T23:00:17.601Z,86.54
2024-02-03T23:02:45.885Z,86.45
2024-02-03T23:05:16.953Z,86.57
2024-02-03T23:07:45.106Z,86.81
2024-02-03T23:10:13.486Z,86.59
2024-02-03T23:12:43.782Z,86.76
2024-02-03T23:15:11.974Z,86.79
2024-02-03T23:17:44.977Z,87.04
2024-02-03T23:20:17.540Z,86.83
2024-02-03T23:22:46.203Z,86.87
2024-02-03T23:25:14.465Z,86.94
2024-02-03T23:27:43.449Z,86.80
2024-02-03T23:30:12.813Z,86.44
2024-02-03T23:32:41.677Z,86.18
2024-02-03T23:35:10.379Z,85.99
2024-02-03T23:37:38.790Z,86.09
2024-02-03T23:40:08.354Z,85.48
2024-02-03T23:42:36.553Z,85.22
2024-02-03T23:45:05.625Z,84.92
2024-02-03T23:47:33.825Z,84.62
2024-02-03T23:50:02.384Z,84.29
2024-02-03T23:52:30.867Z,84.15
2024-02-03T23:54:59.103Z,83.96
2024-02-03T23:57:27.447Z,83.97
2024-02-03T23:59:56.732Z,83.79
